DABB

Annaba Airport

Annabah, Algeria
METAR DABB 211330Z 01015KT 6000 FEW026 BKN200 33/21 Q1010
Observed Flight Rules
Jul-21 @ 13:30 UTC (24 minutes ago) Marginal Visual Flight Rules
Wind Visibility Clouds
10° at 15 knots 6,003 meters
  • Few at 2,600' AGL
  • Broken at 20,000' AGL
Temperatures Readings
Current 33°C / 91°F
Dewpoint 21°C / 70°F
Humidity 49%
Altimeter 29.82" Hg
Pressure 1010 hPa
Elevation 4
METAR DABB 211330Z 01015KT 6000 FEW026 BKN200 33/21 Q1010
Observed Flight Rules
Jul-21 @ 13:30 UTC
(24 minutes ago)
MVFR
Wind Visibility
10° at 15 knots 6,003 meters
Clouds
  • Few at 2,600' AGL
  • Broken at 20,000' AGL
Temperature Dewpoint
33°C / 91°F 21°C / 70°F
Humidity Altimeter Pressure
49% 29.82" Hg 1010 hPa